Fairway, Kansas
Current Conditions -  °F | °C
As of 3:54 AM on Thursday 23 Oct 2014 (Local Time) from KMKC Reporting Station
Overcast Overcast  
Wind Chill: 62°   Ceiling: 4100
Heat Index: 62°   Visibility: 10mi
Dew Point: 52°   Wind: 8mph
Humidity: 70%   Direction: 190°S
Pressure: 30.11"   Gusts: NA
Location:  39.0312°N, 94.6315°W
Report Text: KMKC 230854Z 19007KT 10SM SCT023 BKN041 OVC048 17/11 A3011 RMK AO2 SLP189 T01670111 51005
Loading
Personal Weather Stations






























Interactive Weather Map
Tropical Storm Tracking
New forecast layout! Learn more

10-Day Weather Forecast

Advertisements
Track Severe Weather on mobile